Time;durP1;ratioP1;P1;durP2;ratioP2;P2;SDS_P1;SDS_P2;PMS_P1;PMS_P2;Temp;Humidity;BMP_temperature;BMP_pressure;BME280_temperature;BME280_humidity;BME280_pressure;Samples;Min_cycle;Max_cycle;Signal;HPM_P1;HPM_P2
2021/09/25 00:01:15;;;;;;;7.83;7.03;;;;;;;8.91;100.00;98203.41;5007074;28;20239;-70
2021/09/25 00:03:43;;;;;;;7.83;7.23;;;;;;;8.96;100.00;98200.28;5014611;28;20306;-71
2021/09/25 00:06:19;;;;;;;7.33;6.70;;;;;;;8.89;100.00;98194.75;5016525;28;20414;-70
2021/09/25 00:08:47;;;;;;;7.37;6.77;;;;;;;8.85;100.00;98192.56;4991287;28;20688;-71
2021/09/25 00:11:15;;;;;;;7.50;6.90;;;;;;;8.86;100.00;98196.88;5018651;28;20204;-72
2021/09/25 00:13:43;;;;;;;7.90;7.20;;;;;;;8.89;100.00;98191.28;5004102;28;20881;-73
2021/09/25 00:16:11;;;;;;;8.00;7.33;;;;;;;8.80;100.00;98188.56;5016174;28;20235;-72
2021/09/25 00:18:39;;;;;;;8.17;6.67;;;;;;;8.77;100.00;98191.50;5002537;28;20204;-72
2021/09/25 00:21:07;;;;;;;7.90;7.30;;;;;;;8.77;100.00;98190.66;5019046;28;20588;-72
2021/09/25 00:23:36;;;;;;;7.20;6.60;;;;;;;8.73;100.00;98197.22;4981715;28;20270;-70
2021/09/25 00:26:04;;;;;;;7.53;6.93;;;;;;;8.74;100.00;98196.25;5018595;28;20217;-72
2021/09/25 00:28:32;;;;;;;7.27;6.67;;;;;;;8.76;100.00;98197.78;5005423;28;20292;-69
2021/09/25 00:31:00;;;;;;;7.00;6.40;;;;;;;8.72;100.00;98199.03;5018545;28;20220;-73
2021/09/25 00:33:28;;;;;;;7.73;7.13;;;;;;;8.69;100.00;98194.03;5004805;28;20212;-71
2021/09/25 00:35:56;;;;;;;7.10;6.50;;;;;;;8.76;100.00;98199.56;5013620;28;20230;-71
2021/09/25 00:38:25;;;;;;;7.83;7.13;;;;;;;8.65;100.00;98196.16;4984278;28;20220;-70
2021/09/25 00:40:55;;;;;;;7.23;6.63;;;;;;;8.62;100.00;98199.09;5012185;28;20749;-70
2021/09/25 00:43:22;;;;;;;7.63;7.00;;;;;;;8.61;100.00;98207.16;5008461;28;20242;-70
2021/09/25 00:45:51;;;;;;;8.77;7.50;;;;;;;8.60;100.00;98202.84;5015090;28;20420;-72
2021/09/25 00:48:19;;;;;;;7.20;6.63;;;;;;;8.62;100.00;98203.53;5005836;28;20212;-69
2021/09/25 00:50:47;;;;;;;7.47;6.87;;;;;;;8.63;100.00;98207.81;5014516;28;20216;-72
2021/09/25 00:53:15;;;;;;;6.80;6.30;;;;;;;8.64;100.00;98199.78;5019274;28;20208;-72
2021/09/25 00:55:43;;;;;;;7.00;6.40;;;;;;;8.64;100.00;98199.78;4983307;28;20236;-72
2021/09/25 00:58:13;;;;;;;6.77;6.27;;;;;;;8.61;100.00;98197.44;5017539;28;20723;-72
2021/09/25 01:00:41;;;;;;;7.40;6.90;;;;;;;8.60;100.00;98198.41;5001750;28;20467;-71
2021/09/25 01:03:09;;;;;;;7.20;6.60;;;;;;;8.58;100.00;98195.09;5008456;28;20343;-72
2021/09/25 01:05:41;;;;;;;7.80;7.20;;;;;;;8.56;100.00;98194.41;5009442;28;20219;-71
2021/09/25 01:08:09;;;;;;;7.90;7.20;;;;;;;8.46;100.00;98196.19;5013108;28;20201;-71
2021/09/25 01:10:37;;;;;;;7.60;7.00;;;;;;;8.43;100.00;98191.22;4965032;28;20236;-72
2021/09/25 01:13:05;;;;;;;7.37;6.87;;;;;;;8.42;100.00;98194.81;5012909;28;20235;-73
2021/09/25 01:15:34;;;;;;;7.30;6.77;;;;;;;8.39;100.00;98188.84;4997493;28;20232;-72
2021/09/25 01:18:02;;;;;;;7.83;7.13;;;;;;;8.37;100.00;98193.44;5003898;28;20338;-72
2021/09/25 01:20:30;;;;;;;7.70;7.10;;;;;;;8.32;100.00;98192.22;5017439;28;20220;-71
2021/09/25 01:23:00;;;;;;;7.37;6.77;;;;;;;8.31;100.00;98193.19;5012409;28;20313;-69
2021/09/25 01:25:28;;;;;;;7.03;6.43;;;;;;;8.36;100.00;98190.97;4985208;28;20448;-70
2021/09/25 01:27:56;;;;;;;7.00;6.50;;;;;;;8.29;100.00;98203.91;4997911;28;20242;-70
2021/09/25 01:30:25;;;;;;;7.37;6.87;;;;;;;8.25;100.00;98191.97;5006921;28;20228;-72
2021/09/25 01:32:53;;;;;;;7.70;7.10;;;;;;;8.24;100.00;98190.31;5004823;28;20250;-70
2021/09/25 01:35:23;;;;;;;7.97;7.27;;;;;;;8.33;100.00;98186.81;5005658;28;20224;-71
2021/09/25 01:37:53;;;;;;;8.90;7.40;;;;;;;8.31;100.00;98187.91;5014230;28;20211;-70
2021/09/25 01:40:23;;;;;;;8.10;7.40;;;;;;;8.29;100.00;98187.22;4983435;28;20231;-70
2021/09/25 01:42:51;;;;;;;7.07;6.47;;;;;;;8.33;100.00;98188.59;5017840;28;20200;-73
2021/09/25 01:45:19;;;;;;;8.60;6.93;;;;;;;8.23;100.00;98189.47;5020370;28;20207;-71
2021/09/25 01:47:47;;;;;;;8.27;7.67;;;;;;;8.23;100.00;98189.47;4968518;28;20520;-71
2021/09/25 01:50:16;;;;;;;7.57;6.97;;;;;;;8.18;100.00;98194.34;5014743;28;20281;-72
2021/09/25 01:52:44;;;;;;;7.20;6.70;;;;;;;8.14;100.00;98194.78;5000689;28;20338;-73
2021/09/25 01:55:13;;;;;;;7.03;6.43;;;;;;;8.18;100.00;98190.91;5014844;28;20600;-71
2021/09/25 01:57:42;;;;;;;7.27;6.57;;;;;;;8.13;100.00;98190.47;5010852;28;20204;-70
2021/09/25 02:00:11;;;;;;;6.87;6.27;;;;;;;8.13;100.00;98201.03;5014711;28;20224;-72
2021/09/25 02:02:39;;;;;;;7.50;6.97;;;;;;;8.11;100.00;98196.72;4980703;28;20216;-71
2021/09/25 02:05:08;;;;;;;7.83;7.23;;;;;;;8.12;100.00;98197.56;5012514;28;20337;-71
2021/09/25 02:07:36;;;;;;;8.07;7.47;;;;;;;8.14;100.00;98195.63;5013650;28;20209;-70
2021/09/25 02:10:05;;;;;;;7.43;6.93;;;;;;;8.20;100.00;98196.88;5004913;28;20242;-72
2021/09/25 02:12:33;;;;;;;7.50;6.93;;;;;;;8.08;100.00;98199.66;5012681;28;20204;-71
2021/09/25 02:15:03;;;;;;;7.80;7.10;;;;;;;8.07;100.00;98207.72;5013328;28;20779;-71
2021/09/25 02:17:31;;;;;;;7.80;7.00;;;;;;;8.02;100.00;98192.31;4980708;28;20661;-70
2021/09/25 02:19:59;;;;;;;7.37;6.73;;;;;;;7.99;100.00;98202.34;4996433;28;20580;-72
2021/09/25 02:22:28;;;;;;;7.03;6.53;;;;;;;7.98;100.00;98198.84;5012335;28;20200;-73
2021/09/25 02:24:56;;;;;;;7.07;6.57;;;;;;;7.94;100.00;98200.13;5001027;28;20681;-69
2021/09/25 02:27:24;;;;;;;7.13;6.53;;;;;;;7.88;100.00;98198.03;5006913;28;20534;-70
2021/09/25 02:29:52;;;;;;;6.80;6.30;;;;;;;7.84;100.00;98202.75;5016162;28;20521;-71
2021/09/25 02:32:21;;;;;;;7.00;6.50;;;;;;;7.78;100.00;98198.06;4987766;28;20747;-70
2021/09/25 02:34:49;;;;;;;6.63;6.13;;;;;;;7.80;100.00;98189.03;5014135;28;20231;-72
2021/09/25 02:37:17;;;;;;;6.53;6.03;;;;;;;7.84;100.00;98194.84;5012264;28;20742;-73
2021/09/25 02:39:45;;;;;;;6.63;5.93;;;;;;;7.79;100.00;98192.66;5001664;28;20244;-73
2021/09/25 02:42:13;;;;;;;7.07;6.47;;;;;;;7.72;100.00;98196.00;4986835;28;20208;-71
2021/09/25 02:44:41;;;;;;;7.47;6.87;;;;;;;7.67;100.00;98191.97;5016456;28;20212;-72
2021/09/25 02:47:09;;;;;;;7.63;5.90;;;;;;;7.65;100.00;98199.19;4990645;28;20293;-71
2021/09/25 02:49:39;;;;;;;6.63;6.13;;;;;;;7.67;100.00;98199.88;4980984;28;20236;-71
2021/09/25 02:52:07;;;;;;;7.00;6.40;;;;;;;7.71;100.00;98194.31;5010655;28;20205;-71
2021/09/25 02:54:35;;;;;;;6.83;6.33;;;;;;;7.71;100.00;98191.69;5011512;28;20211;-71
2021/09/25 02:57:03;;;;;;;6.83;6.13;;;;;;;7.67;100.00;98194.59;5000243;28;20243;-71
2021/09/25 02:59:31;;;;;;;6.80;6.20;;;;;;;7.70;100.00;98190.03;5014536;28;20220;-71
2021/09/25 03:01:59;;;;;;;7.03;6.40;;;;;;;7.66;100.00;98192.09;4993400;28;20212;-71
2021/09/25 03:04:27;;;;;;;7.40;6.70;;;;;;;7.77;100.00;98199.88;4979655;28;20220;-71
2021/09/25 03:06:57;;;;;;;6.57;6.03;;;;;;;7.77;100.00;98205.16;5008783;28;20207;-71
2021/09/25 03:09:25;;;;;;;7.27;6.57;;;;;;;7.74;100.00;98200.13;5016109;28;20975;-71
2021/09/25 03:11:53;;;;;;;6.47;5.97;;;;;;;7.68;100.00;98205.97;4999293;28;20219;-71
2021/09/25 03:14:21;;;;;;;6.70;6.20;;;;;;;7.73;100.00;98205.56;5013787;28;20207;-71
2021/09/25 03:16:49;;;;;;;7.47;6.87;;;;;;;7.68;100.00;98205.97;5005622;28;20224;-70
2021/09/25 03:19:17;;;;;;;6.63;6.13;;;;;;;7.64;100.00;98202.81;4967953;28;20240;-71
2021/09/25 03:21:45;;;;;;;7.00;6.50;;;;;;;7.62;100.00;98207.38;5011426;28;20216;-71
2021/09/25 03:24:15;;;;;;;7.20;6.60;;;;;;;7.59;100.00;98206.81;5010607;28;20204;-70
2021/09/25 03:26:43;;;;;;;6.57;6.07;;;;;;;7.62;100.00;98198.63;4999999;28;20677;-71
2021/09/25 03:29:11;;;;;;;7.17;6.57;;;;;;;7.63;100.00;98193.22;4991188;28;20255;-72
2021/09/25 03:31:39;;;;;;;6.87;6.37;;;;;;;7.57;100.00;98195.59;5009885;28;20759;-70
2021/09/25 03:34:07;;;;;;;6.77;6.27;;;;;;;7.56;100.00;98196.56;4961356;28;20224;-70
2021/09/25 03:36:35;;;;;;;6.70;6.10;;;;;;;7.52;100.00;98196.84;5010483;28;20322;-71
2021/09/25 03:39:03;;;;;;;7.30;6.80;;;;;;;7.52;100.00;98202.09;5015665;28;20560;-71
2021/09/25 03:41:32;;;;;;;7.37;6.27;;;;;;;7.46;100.00;98196.53;5006321;28;20255;-72
2021/09/25 03:44:01;;;;;;;7.50;6.90;;;;;;;7.46;100.00;98200.03;5018055;28;20204;-73
2021/09/25 03:46:29;;;;;;;6.83;6.23;;;;;;;7.42;100.00;98206.56;5015771;28;20633;-71
2021/09/25 03:48:57;;;;;;;6.17;5.70;;;;;;;7.39;100.00;98201.56;5019650;28;20736;-72
2021/09/25 03:51:25;;;;;;;7.70;7.00;;;;;;;7.42;100.00;98201.28;4983554;28;20735;-72
2021/09/25 03:53:53;;;;;;;6.43;6.00;;;;;;;7.50;100.00;98200.56;5027855;28;20200;-73
2021/09/25 03:56:21;;;;;;;7.13;6.53;;;;;;;7.46;100.00;98201.81;4982596;28;20232;-74
2021/09/25 03:58:51;;;;;;;7.53;6.73;;;;;;;7.43;100.00;98202.94;5004634;28;20434;-76
2021/09/25 04:01:19;;;;;;;8.17;6.50;;;;;;;7.38;100.00;98210.41;5018277;28;20208;-75
2021/09/25 04:03:47;;;;;;;6.97;6.40;;;;;;;7.39;100.00;98206.84;5014147;28;20487;-75
2021/09/25 04:06:15;;;;;;;6.97;6.37;;;;;;;7.36;100.00;98201.81;5019909;28;20561;-77
2021/09/25 04:08:43;;;;;;;6.53;6.10;;;;;;;7.37;100.00;98206.97;5014721;28;20204;-72
2021/09/25 04:11:11;;;;;;;7.37;6.77;;;;;;;7.35;100.00;98205.41;5017383;28;20753;-72
2021/09/25 04:13:39;;;;;;;7.27;6.67;;;;;;;7.35;100.00;98206.28;4978988;28;21182;-73
2021/09/25 04:16:09;;;;;;;6.27;5.73;;;;;;;7.31;100.00;98209.31;5017223;28;20708;-73
2021/09/25 04:18:36;;;;;;;6.33;5.83;;;;;;;7.23;100.00;98210.84;5014275;28;20215;-72
2021/09/25 04:21:04;;;;;;;7.30;6.80;;;;;;;7.21;100.00;98204.88;5017135;28;20561;-73
2021/09/25 04:23:32;;;;;;;6.70;6.20;;;;;;;7.23;100.00;98207.38;4999168;28;20212;-72
2021/09/25 04:26:00;;;;;;;7.20;6.63;;;;;;;7.21;100.00;98215.41;5016421;28;20200;-72
2021/09/25 04:28:28;;;;;;;7.40;6.80;;;;;;;7.13;100.00;98217.91;4981845;28;20240;-73
2021/09/25 04:30:56;;;;;;;6.63;6.13;;;;;;;7.16;100.00;98222.06;5010244;28;20418;-72
2021/09/25 04:33:26;;;;;;;7.30;6.70;;;;;;;7.09;100.00;98222.59;5012617;28;20308;-71
2021/09/25 04:35:54;;;;;;;7.90;7.23;;;;;;;7.10;100.00;98213.72;5012838;28;20452;-73
2021/09/25 04:38:22;;;;;;;7.87;7.10;;;;;;;7.10;100.00;98220.81;4999638;28;20700;-71
2021/09/25 04:40:50;;;;;;;7.23;6.53;;;;;;;7.07;100.00;98223.72;5016559;28;20220;-72
2021/09/25 04:43:18;;;;;;;7.43;6.93;;;;;;;7.07;100.00;98223.72;4965091;28;20576;-72
2021/09/25 04:45:46;;;;;;;7.03;6.43;;;;;;;7.05;100.00;98215.13;5009454;28;20207;-74
2021/09/25 04:48:14;;;;;;;7.60;7.00;;;;;;;7.05;100.00;98218.56;5014215;28;20201;-71
2021/09/25 04:50:44;;;;;;;7.33;6.73;;;;;;;7.08;100.00;98210.41;4999966;28;20236;-74
2021/09/25 04:53:14;;;;;;;7.43;6.87;;;;;;;7.08;100.00;98214.84;5011510;28;20209;-71
2021/09/25 04:55:42;;;;;;;7.60;7.00;;;;;;;7.11;100.00;98214.56;5015270;28;20219;-73
2021/09/25 04:58:10;;;;;;;6.93;6.23;;;;;;;7.17;100.00;98214.03;5006663;28;20228;-71
2021/09/25 05:00:39;;;;;;;7.13;6.60;;;;;;;7.15;100.00;98225.66;4980987;28;20280;-73
2021/09/25 05:03:07;;;;;;;7.37;6.57;;;;;;;7.12;100.00;98223.28;5012244;28;20208;-71
2021/09/25 05:05:36;;;;;;;6.57;5.97;;;;;;;7.12;100.00;98224.16;5016275;28;20204;-72
2021/09/25 05:08:05;;;;;;;7.37;6.73;;;;;;;7.13;100.00;98217.91;4984085;28;20221;-71
2021/09/25 05:10:34;;;;;;;7.53;6.80;;;;;;;7.05;100.00;98218.56;5015204;28;20570;-72
2021/09/25 05:13:01;;;;;;;6.83;6.33;;;;;;;7.04;100.00;98219.53;5013107;28;20205;-70
2021/09/25 05:15:29;;;;;;;6.80;6.30;;;;;;;7.01;100.00;98222.47;4970486;28;20930;-73
2021/09/25 05:17:57;;;;;;;7.27;6.57;;;;;;;7.04;100.00;98229.28;5014951;28;20639;-70
2021/09/25 05:20:26;;;;;;;6.67;6.17;;;;;;;7.04;100.00;98232.72;5016170;28;20231;-71
2021/09/25 05:22:54;;;;;;;6.83;6.40;;;;;;;7.05;100.00;98228.31;5015909;28;20684;-71
2021/09/25 05:25:23;;;;;;;7.00;6.40;;;;;;;7.02;100.00;98225.94;5016887;28;20208;-72
2021/09/25 05:27:51;;;;;;;6.60;6.07;;;;;;;7.02;100.00;98232.03;5015824;28;20668;-71
2021/09/25 05:30:20;;;;;;;6.53;6.03;;;;;;;7.04;100.00;98230.09;5001131;28;20319;-71
2021/09/25 05:32:48;;;;;;;6.90;6.30;;;;;;;7.06;100.00;98232.59;4981154;28;20481;-70
2021/09/25 05:35:19;;;;;;;7.10;6.60;;;;;;;7.15;100.00;98231.78;5014939;28;20500;-72
2021/09/25 05:37:47;;;;;;;7.77;7.10;;;;;;;7.20;100.00;98234.03;5012134;28;20573;-72
2021/09/25 05:40:16;;;;;;;7.90;7.30;;;;;;;7.33;100.00;98229.31;5012889;28;20520;-73
2021/09/25 05:42:45;;;;;;;6.73;6.13;;;;;;;7.27;100.00;98229.84;5013217;28;20444;-74
2021/09/25 05:45:16;;;;;;;7.37;6.87;;;;;;;7.22;100.00;98227.63;4999947;28;20426;-71
2021/09/25 05:47:44;;;;;;;8.30;6.13;;;;;;;7.35;100.00;98239.69;4985690;28;20219;-71
2021/09/25 05:50:12;;;;;;;7.53;6.93;;;;;;;7.42;100.00;98234.72;5012740;28;20440;-70
2021/09/25 05:52:40;;;;;;;7.77;7.17;;;;;;;7.32;100.00;98232.06;5013422;28;20677;-71
2021/09/25 05:55:10;;;;;;;7.27;6.57;;;;;;;7.45;100.00;98234.44;5009864;28;20196;-71
2021/09/25 05:57:38;;;;;;;6.90;6.40;;;;;;;7.45;100.00;98237.06;5011743;28;20231;-71
2021/09/25 06:00:08;;;;;;;7.00;6.40;;;;;;;7.47;100.00;98225.44;4998654;28;20220;-70
2021/09/25 06:02:38;;;;;;;7.63;6.93;;;;;;;7.47;100.00;98224.59;4977274;28;20262;-71
2021/09/25 06:05:07;;;;;;;7.37;6.57;;;;;;;7.61;100.00;98236.53;5004028;28;20208;-71
2021/09/25 06:07:35;;;;;;;8.20;7.50;;;;;;;7.67;100.00;98234.19;5011929;28;20222;-72
2021/09/25 06:10:05;;;;;;;9.53;8.63;;;;;;;7.78;100.00;98232.34;5005701;28;20269;-71
2021/09/25 06:12:33;;;;;;;9.43;7.73;;;;;;;7.81;100.00;98227.63;5011750;28;20208;-70
2021/09/25 06:15:01;;;;;;;8.47;6.67;;;;;;;7.91;100.00;98229.44;4997742;28;20204;-70
2021/09/25 06:17:31;;;;;;;7.53;6.93;;;;;;;7.98;100.00;98238.44;5015100;28;20314;-69
2021/09/25 06:19:59;;;;;;;7.83;6.87;;;;;;;8.16;100.00;98237.72;4981664;28;20236;-71
2021/09/25 06:22:27;;;;;;;9.10;6.83;;;;;;;8.21;100.00;98231.03;5015833;28;20212;-71
2021/09/25 06:24:55;;;;;;;7.73;7.07;;;;;;;8.31;100.00;98224.88;5000051;28;20220;-70
2021/09/25 06:27:22;;;;;;;8.13;7.47;;;;;;;8.37;100.00;98225.16;5015109;28;20212;-71
2021/09/25 06:29:50;;;;;;;8.13;7.30;;;;;;;8.47;100.00;98230.41;5013081;28;20227;-69
2021/09/25 06:32:18;;;;;;;8.57;7.70;;;;;;;8.61;100.00;98217.72;5011239;28;20204;-71
2021/09/25 06:34:48;;;;;;;8.20;7.60;;;;;;;8.71;100.00;98217.69;4980345;28;20685;-69
2021/09/25 06:37:16;;;;;;;8.97;8.17;;;;;;;8.78;100.00;98221.38;5013046;28;20409;-71
2021/09/25 06:39:44;;;;;;;8.00;7.40;;;;;;;8.88;100.00;98222.16;5012571;28;20328;-69
2021/09/25 06:42:12;;;;;;;8.00;7.40;;;;;;;8.96;100.00;98217.00;5003139;28;20439;-70
2021/09/25 06:44:40;;;;;;;8.03;7.33;;;;;;;9.05;100.00;98211.78;5014582;28;20707;-71
2021/09/25 06:47:08;;;;;;;7.93;7.20;;;;;;;9.22;100.00;98220.72;5011692;28;20208;-71
2021/09/25 06:49:36;;;;;;;8.43;7.63;;;;;;;9.30;100.00;98227.91;4981614;28;20223;-71
2021/09/25 06:52:06;;;;;;;8.13;7.50;;;;;;;9.49;100.00;98233.06;5009594;28;20337;-70
2021/09/25 06:54:35;;;;;;;7.33;6.83;;;;;;;9.60;100.00;98223.22;5014925;28;20208;-70
2021/09/25 06:57:03;;;;;;;8.17;7.57;;;;;;;9.75;100.00;98229.66;5005529;28;20215;-71
2021/09/25 06:59:31;;;;;;;8.53;7.83;;;;;;;9.90;100.00;98229.94;5010608;28;20224;-71
2021/09/25 07:01:59;;;;;;;9.10;8.03;;;;;;;10.07;100.00;98220.28;5013286;28;20200;-68
2021/09/25 07:04:27;;;;;;;9.10;8.30;;;;;;;10.34;100.00;98226.41;4982569;28;20235;-70
2021/09/25 07:06:55;;;;;;;11.10;7.73;;;;;;;10.38;100.00;98218.97;5008925;28;20219;-69
2021/09/25 07:09:24;;;;;;;7.93;7.27;;;;;;;10.41;100.00;98222.16;5015219;28;20224;-72
2021/09/25 07:11:52;;;;;;;7.63;7.03;;;;;;;10.47;100.00;98227.84;5004697;28;20738;-69
2021/09/25 07:14:21;;;;;;;7.60;6.87;;;;;;;10.63;100.00;98225.25;5022549;28;20223;-71
2021/09/25 07:16:49;;;;;;;8.10;7.40;;;;;;;10.82;100.00;98226.00;5013277;28;20575;-69
2021/09/25 07:19:17;;;;;;;7.53;7.03;;;;;;;10.91;100.00;98214.44;4983801;28;20259;-72
2021/09/25 07:21:45;;;;;;;8.93;8.03;;;;;;;11.06;100.00;98213.81;4999374;28;20967;-71
2021/09/25 07:24:13;;;;;;;9.30;7.70;;;;;;;11.15;100.00;98220.78;4999621;28;20414;-73
2021/09/25 07:26:43;;;;;;;8.50;7.80;;;;;;;11.43;100.00;98217.88;5009390;28;21076;-70
2021/09/25 07:29:11;;;;;;;8.53;7.83;;;;;;;11.54;100.00;98216.72;5001527;28;20460;-69
2021/09/25 07:31:39;;;;;;;8.30;7.60;;;;;;;11.75;100.00;98224.19;5018143;28;20223;-72
2021/09/25 07:34:07;;;;;;;8.23;7.53;;;;;;;11.78;100.00;98223.84;4980065;28;20208;-69
2021/09/25 07:36:36;;;;;;;7.20;6.50;;;;;;;11.90;100.00;98229.66;5012612;28;20688;-72
2021/09/25 07:39:04;;;;;;;8.27;7.60;;;;;;;12.18;100.00;98239.97;5016408;28;20231;-69
2021/09/25 07:41:32;;;;;;;7.13;6.53;;;;;;;12.41;100.00;98245.41;5018974;28;20736;-71
2021/09/25 07:44:01;;;;;;;8.20;7.23;;;;;;;12.43;100.00;98234.59;5003007;28;20211;-69
2021/09/25 07:46:30;;;;;;;7.70;7.10;;;;;;;12.64;100.00;98234.03;5010586;28;20216;-71
2021/09/25 07:48:59;;;;;;;8.27;7.53;;;;;;;12.77;100.00;98236.16;5016887;28;20199;-69
2021/09/25 07:51:27;;;;;;;7.73;7.13;;;;;;;12.77;100.00;98240.66;4984084;28;20358;-70
2021/09/25 07:53:55;;;;;;;10.07;8.43;;;;;;;12.74;100.00;98244.47;5014945;28;20688;-69
2021/09/25 07:56:23;;;;;;;7.50;6.90;;;;;;;12.81;100.00;98253.41;5017019;28;20691;-71
2021/09/25 07:58:51;;;;;;;7.47;6.97;;;;;;;13.02;100.00;98247.50;5007392;28;20220;-69
2021/09/25 08:01:20;;;;;;;8.00;7.20;;;;;;;13.19;100.00;98252.78;4999929;28;20215;-71
2021/09/25 08:03:49;;;;;;;9.43;7.50;;;;;;;13.24;100.00;98245.09;5011445;28;20212;-72
2021/09/25 08:06:18;;;;;;;8.30;7.60;;;;;;;13.36;100.00;98239.34;4983300;28;20819;-71
2021/09/25 08:08:46;;;;;;;7.23;6.57;;;;;;;13.64;100.00;98231.72;5017500;28;20664;-71
2021/09/25 08:11:14;;;;;;;6.63;5.97;;;;;;;13.81;100.00;98240.41;4980538;28;21025;-70
2021/09/25 08:13:42;;;;;;;9.80;7.53;;;;;;;13.93;100.00;98232.00;5015446;28;20208;-71
2021/09/25 08:16:10;;;;;;;7.73;7.03;;;;;;;13.98;100.00;98230.44;5012620;28;20204;-69
2021/09/25 08:18:40;;;;;;;7.53;6.93;;;;;;;14.25;100.00;98235.38;5017647;28;20236;-71
2021/09/25 08:21:08;;;;;;;8.07;7.00;;;;;;;14.37;100.00;98238.41;4998719;28;20659;-73
2021/09/25 08:23:36;;;;;;;8.17;7.47;;;;;;;14.40;100.00;98240.72;5014274;28;20211;-72
2021/09/25 08:26:04;;;;;;;7.17;6.67;;;;;;;14.59;100.00;98244.69;5008152;28;20216;-73
2021/09/25 08:28:32;;;;;;;6.23;5.73;;;;;;;14.65;100.00;98246.63;4982672;28;20219;-73
2021/09/25 08:31:00;;;;;;;7.47;6.83;;;;;;;14.79;100.00;98247.66;5011309;28;20913;-72
2021/09/25 08:33:28;;;;;;;7.23;6.63;;;;;;;14.95;100.00;98241.28;5014445;28;20242;-70
2021/09/25 08:35:57;;;;;;;8.33;6.37;;;;;;;15.09;100.00;98242.25;5013855;28;20235;-71
2021/09/25 08:38:25;;;;;;;7.57;6.93;;;;;;;15.34;100.00;98232.09;5013181;28;20205;-71
2021/09/25 08:40:54;;;;;;;7.27;6.70;;;;;;;15.51;100.00;98237.19;5007361;28;20239;-71
2021/09/25 08:43:24;;;;;;;7.60;6.53;;;;;;;15.53;100.00;98243.16;4985280;28;20224;-71
2021/09/25 08:45:56;;;;;;;7.90;7.10;;;;;;;15.61;100.00;98240.38;5012553;28;20213;-68
2021/09/25 08:48:25;;;;;;;7.13;6.50;;;;;;;15.75;100.00;98243.19;5014886;28;20303;-70
2021/09/25 08:50:53;;;;;;;6.40;6.00;;;;;;;15.75;100.00;98241.31;5012500;28;20747;-69
2021/09/25 08:53:23;;;;;;;6.90;6.40;;;;;;;15.98;100.00;98247.50;5016335;28;20204;-71
2021/09/25 08:55:51;;;;;;;6.30;5.90;;;;;;;16.26;100.00;98242.16;5013892;28;20223;-69
2021/09/25 08:58:19;;;;;;;6.93;6.23;;;;;;;16.26;100.00;98247.50;4981194;28;20212;-71
2021/09/25 09:00:48;;;;;;;6.33;5.83;;;;;;;16.39;100.00;98244.13;5012951;28;20243;-69
2021/09/25 09:03:25;;;;;;;7.90;6.43;;;;;;;16.69;100.00;98237.72;5014442;28;20215;-69
2021/09/25 09:05:56;;;;;;;6.50;5.83;;;;;;;16.79;100.00;98225.63;5013178;28;20298;-69
2021/09/25 09:08:27;;;;;;;6.40;5.80;;;;;;;16.78;100.00;98234.66;5016607;28;20647;-71
2021/09/25 09:10:55;;;;;;;6.67;6.17;;;;;;;17.06;100.00;98231.13;5013022;28;20224;-71
2021/09/25 09:13:23;;;;;;;8.00;6.47;;;;;;;17.02;100.00;98231.72;5013232;28;20220;-71
2021/09/25 09:15:52;;;;;;;6.87;6.27;;;;;;;17.11;100.00;98229.69;4979597;28;20219;-69
2021/09/25 09:18:23;;;;;;;6.17;5.57;;;;;;;17.33;100.00;98235.72;5017305;28;20216;-70
2021/09/25 09:21:02;;;;;;;6.33;5.73;;;;;;;17.32;100.00;98234.94;5013099;28;20232;-69
2021/09/25 09:23:32;;;;;;;6.13;5.70;;;;;;;17.56;100.00;98237.25;5015011;28;20204;-70
2021/09/25 09:26:00;;;;;;;6.50;6.00;;;;;;;17.80;100.00;98246.56;5013262;28;20587;-70
2021/09/25 09:28:31;;;;;;;6.13;5.73;;;;;;;17.79;100.00;98240.34;5014429;28;20213;-68
2021/09/25 09:31:00;;;;;;;6.63;6.13;;;;;;;17.94;100.00;98234.78;4978203;28;20417;-72
2021/09/25 09:33:34;;;;;;;6.63;6.03;;;;;;;18.10;100.00;98240.81;5013036;28;20208;-69
2021/09/25 09:36:26;;;;;;;6.87;6.03;;;;;;;18.14;100.00;98233.19;5012115;28;21322;-71
2021/09/25 09:39:05;;;;;;;5.97;5.47;;;;;;;18.22;100.00;98231.13;5010192;28;20213;-70
2021/09/25 09:41:35;;;;;;;11.23;5.83;;;;;;;18.37;100.00;98225.53;5016398;28;20200;-71
2021/09/25 09:44:05;;;;;;;6.17;5.67;;;;;;;18.59;100.00;98232.50;5011023;28;20400;-71
2021/09/25 09:46:36;;;;;;;6.30;5.83;;;;;;;18.52;100.00;98222.63;4979620;28;20794;-71
2021/09/25 09:49:06;;;;;;;6.40;5.90;;;;;;;18.66;100.00;98225.25;5007109;28;20492;-70
2021/09/25 09:51:42;;;;;;;6.57;5.90;;;;;;;18.72;100.00;98218.22;5016253;28;20200;-71
2021/09/25 09:54:16;;;;;;;6.63;6.13;;;;;;;18.90;100.00;98223.72;5011512;28;20294;-70
2021/09/25 09:56:44;;;;;;;6.77;6.17;;;;;;;18.81;100.00;98219.63;5014328;28;20710;-68
2021/09/25 09:59:13;;;;;;;6.63;5.90;;;;;;;19.00;100.00;98209.88;5015083;28;20365;-71
2021/09/25 10:01:42;;;;;;;7.47;6.00;;;;;;;19.02;100.00;98215.88;4981154;28;20220;-69
2021/09/25 10:04:11;;;;;;;5.53;5.13;;;;;;;19.08;100.00;98206.13;5013088;28;20307;-72
2021/09/25 10:06:39;;;;;;;6.27;5.63;;;;;;;19.15;100.00;98204.22;5014406;28;20227;-69
2021/09/25 10:09:09;;;;;;;5.40;5.00;;;;;;;19.22;100.00;98204.22;5011935;28;20363;-71
2021/09/25 10:11:40;;;;;;;6.73;6.17;;;;;;;19.26;100.00;98205.44;4967476;28;20227;-69
2021/09/25 10:14:10;;;;;;;6.00;5.50;;;;;;;19.45;100.00;98200.97;5015419;28;20565;-71
2021/09/25 10:16:41;;;;;;;6.83;5.90;;;;;;;19.55;100.00;98202.34;4971649;28;20223;-69
2021/09/25 10:19:09;;;;;;;6.07;5.67;;;;;;;19.63;100.00;98199.41;4976825;28;20220;-71
2021/09/25 10:21:37;;;;;;;5.67;5.27;;;;;;;19.88;100.00;98201.28;4995329;28;20711;-72
2021/09/25 10:24:08;;;;;;;5.70;5.23;;;;;;;20.13;100.00;98195.13;5020081;28;20215;-74
2021/09/25 10:26:43;;;;;;;6.40;5.90;;;;;;;20.28;100.00;98194.78;5000329;28;20215;-72
2021/09/25 10:29:17;;;;;;;5.60;5.20;;;;;;;20.42;100.00;98192.75;5020171;28;20223;-73
2021/09/25 10:31:45;;;;;;;5.63;5.23;;;;;;;20.74;100.00;98195.28;5013170;28;20596;-70
2021/09/25 10:34:16;;;;;;;5.97;5.50;;;;;;;20.99;100.00;98191.72;4970869;28;20223;-71
2021/09/25 10:36:48;;;;;;;6.23;5.73;;;;;;;21.13;100.00;98184.28;4978767;28;20200;-69
2021/09/25 10:39:23;;;;;;;6.50;5.83;;;;;;;21.29;100.00;98180.13;4996521;28;20473;-70
2021/09/25 10:41:59;;;;;;;6.43;5.87;;;;;;;21.54;100.00;98178.06;4996689;28;20227;-69
2021/09/25 10:44:28;;;;;;;6.53;6.03;;;;;;;21.23;100.00;98182.69;5011179;28;20425;-70
2021/09/25 10:47:08;;;;;;;5.13;4.83;;;;;;;21.32;100.00;98174.28;4994308;28;20211;-68
2021/09/25 10:49:51;;;;;;;5.13;4.83;;;;;;;21.31;100.00;98181.53;4981518;28;20224;-70
2021/09/25 10:52:25;;;;;;;6.50;5.50;;;;;;;21.23;100.00;98177.31;4996204;28;20211;-71
2021/09/25 10:55:19;;;;;;;5.77;5.37;;;;;;;21.73;99.81;98178.03;5014039;28;20206;-68
2021/09/25 10:58:29;;;;;;;4.87;4.57;;;;;;;22.20;93.40;98168.31;4997302;28;20297;-70
2021/09/25 11:01:04;;;;;;;5.40;5.00;;;;;;;21.89;100.00;98170.31;4992403;28;20323;-68
2021/09/25 11:03:57;;;;;;;5.60;5.20;;;;;;;22.11;95.32;98165.97;5013441;28;20199;-70
2021/09/25 11:06:40;;;;;;;5.50;5.10;;;;;;;22.01;93.47;98164.91;4979087;28;20409;-69
2021/09/25 11:09:10;;;;;;;5.30;5.00;;;;;;;22.19;86.84;98167.50;5010779;28;20294;-68
2021/09/25 11:11:41;;;;;;;5.37;5.03;;;;;;;21.81;88.86;98166.91;5013852;28;20212;-70
2021/09/25 11:14:14;;;;;;;7.97;5.27;;;;;;;22.05;89.64;98158.84;4994639;28;20228;-68
2021/09/25 11:16:54;;;;;;;4.83;4.43;;;;;;;22.19;91.75;98156.72;5013433;28;20204;-70
2021/09/25 11:19:35;;;;;;;5.10;4.80;;;;;;;22.25;84.03;98146.84;4980947;28;20231;-70
2021/09/25 11:22:08;;;;;;;5.57;5.00;;;;;;;21.98;87.01;98142.75;4995230;28;20219;-68
2021/09/25 11:24:47;;;;;;;5.23;4.87;;;;;;;22.25;86.70;98139.56;5013166;28;20203;-69
2021/09/25 11:27:18;;;;;;;6.20;5.03;;;;;;;22.47;82.11;98147.06;4993953;28;21083;-69
2021/09/25 11:30:18;;;;;;;5.60;5.20;;;;;;;22.67;80.82;98145.84;5011181;28;20557;-69
2021/09/25 11:32:52;;;;;;;5.00;4.60;;;;;;;22.92;82.72;98142.00;5005763;28;20209;-70
2021/09/25 11:35:24;;;;;;;4.60;4.30;;;;;;;23.19;78.11;98136.84;4980152;28;21085;-71
2021/09/25 11:37:56;;;;;;;4.80;4.50;;;;;;;23.32;76.63;98137.63;5013484;28;20291;-68
2021/09/25 11:40:27;;;;;;;5.27;4.90;;;;;;;23.53;73.29;98130.69;5012126;28;20239;-69
2021/09/25 11:43:04;;;;;;;4.70;4.40;;;;;;;23.73;67.92;98142.91;5005693;28;20205;-69